createdAt,value
2023-01-18T00:00:32.304Z,-2.99
2023-01-18T00:03:00.218Z,-3.27
2023-01-18T00:05:28.111Z,-3.14
2023-01-18T00:07:57.168Z,-3.12
2023-01-18T00:10:25.147Z,-3.12
2023-01-18T00:12:52.723Z,-3.15
2023-01-18T00:15:20.304Z,-3.33
2023-01-18T00:17:52.483Z,-3.19
2023-01-18T00:20:21.649Z,-3.21
2023-01-18T00:22:49.610Z,-3.31
2023-01-18T00:25:19.220Z,-3.35
2023-01-18T00:27:48.198Z,-3.23
2023-01-18T00:30:18.321Z,-3.58
2023-01-18T00:32:46.068Z,-3.59
2023-01-18T00:35:13.861Z,-3.63
2023-01-18T00:37:41.585Z,-3.43
2023-01-18T00:40:10.999Z,-3.17
2023-01-18T00:42:58.132Z,-2.97
2023-01-18T00:45:25.878Z,-3.02
2023-01-18T00:47:53.413Z,-2.93
2023-01-18T00:50:22.420Z,-3.00
2023-01-18T00:52:50.704Z,-3.19
2023-01-18T00:55:19.160Z,-3.06
2023-01-18T00:57:48.801Z,-3.09
2023-01-18T01:00:16.746Z,-2.93
2023-01-18T01:02:44.521Z,-2.77
2023-01-18T01:05:35.199Z,-2.82
2023-01-18T01:08:03.087Z,-2.80
2023-01-18T01:10:30.691Z,-2.79
2023-01-18T01:13:17.569Z,-2.85
2023-01-18T01:16:02.578Z,-2.72
2023-01-18T01:18:47.782Z,-2.59
2023-01-18T01:21:32.895Z,-2.51
2023-01-18T01:24:18.201Z,-2.52
2023-01-18T01:26:46.024Z,-2.42
2023-01-18T01:29:15.887Z,-2.38
2023-01-18T01:31:43.656Z,-2.44
2023-01-18T01:34:11.390Z,-2.41
2023-01-18T01:36:39.115Z,-2.42
2023-01-18T01:39:07.082Z,-2.35
2023-01-18T01:41:36.036Z,-2.30
2023-01-18T01:44:06.608Z,-2.33
2023-01-18T01:46:40.746Z,-2.41
2023-01-18T01:49:10.469Z,-2.42
2023-01-18T01:51:39.789Z,-2.40
2023-01-18T01:54:10.026Z,-2.46
2023-01-18T01:56:38.358Z,-2.48
2023-01-18T01:59:06.193Z,-2.57
2023-01-18T02:01:34.389Z,-2.73
2023-01-18T02:04:04.006Z,-2.69
2023-01-18T02:06:34.956Z,-2.81
2023-01-18T02:09:04.966Z,-2.91
2023-01-18T02:11:32.616Z,-3.06
2023-01-18T02:14:02.224Z,-3.02
2023-01-18T02:16:42.505Z,-3.18
2023-01-18T02:19:22.332Z,-3.14
2023-01-18T02:21:54.316Z,-3.23
2023-01-18T02:24:45.872Z,-3.25
2023-01-18T02:27:22.859Z,-3.37
2023-01-18T02:29:59.924Z,-3.42
2023-01-18T02:32:34.373Z,-3.51
2023-01-18T02:35:09.104Z,-3.45
2023-01-18T02:37:43.595Z,-3.46
2023-01-18T02:40:17.309Z,-3.47
2023-01-18T02:43:03.456Z,-3.41
2023-01-18T02:45:52.562Z,-3.32
2023-01-18T02:48:22.251Z,-3.30
2023-01-18T02:50:50.104Z,-3.25
2023-01-18T02:53:17.975Z,-3.24
2023-01-18T02:55:49.227Z,-3.18
2023-01-18T02:58:22.935Z,-3.20
2023-01-18T03:00:57.112Z,-3.08
2023-01-18T03:03:25.868Z,-3.06
2023-01-18T03:05:55.614Z,-3.26
2023-01-18T03:08:27.372Z,-3.17
2023-01-18T03:10:59.040Z,-3.01
2023-01-18T03:13:32.334Z,-3.22
2023-01-18T03:16:05.724Z,-3.04
2023-01-18T03:18:39.376Z,-2.82
2023-01-18T03:21:08.418Z,-2.90
2023-01-18T03:23:38.386Z,-3.07
2023-01-18T03:26:07.791Z,-3.05
2023-01-18T03:28:54.011Z,-3.24
2023-01-18T03:31:45.730Z,-3.47
2023-01-18T03:34:18.858Z,-3.33
2023-01-18T03:36:47.940Z,-3.16
2023-01-18T03:39:20.281Z,-3.18
2023-01-18T03:41:50.167Z,-3.08
2023-01-18T03:44:20.461Z,-2.98
2023-01-18T03:46:49.389Z,-3.07
2023-01-18T03:49:18.092Z,-3.17
2023-01-18T03:51:54.417Z,-3.24
2023-01-18T03:54:26.613Z,-3.20
2023-01-18T03:56:59.016Z,-3.03
2023-01-18T03:59:31.039Z,-3.03
2023-01-18T04:01:59.986Z,-3.19
2023-01-18T04:04:27.688Z,-3.18
2023-01-18T04:06:55.415Z,-3.23
2023-01-18T04:09:23.100Z,-3.05
2023-01-18T04:11:50.701Z,-3.09
2023-01-18T04:14:18.434Z,-3.15
2023-01-18T04:16:46.013Z,-3.31
2023-01-18T04:19:14.983Z,-3.30
2023-01-18T04:21:42.504Z,-3.26
2023-01-18T04:24:11.227Z,-3.32
2023-01-18T04:26:38.896Z,-3.36
2023-01-18T04:29:06.621Z,-3.49
2023-01-18T04:31:34.579Z,-3.62
2023-01-18T04:34:02.154Z,-3.66
2023-01-18T04:36:31.553Z,-3.44
2023-01-18T04:38:59.316Z,-3.39
2023-01-18T04:41:27.083Z,-3.25
2023-01-18T04:43:54.804Z,-3.39
2023-01-18T04:46:22.634Z,-3.30
2023-01-18T04:48:51.725Z,-3.60
2023-01-18T04:51:19.852Z,-3.80
2023-01-18T04:53:49.007Z,-3.79
2023-01-18T04:56:17.015Z,-4.03
2023-01-18T04:58:44.868Z,-3.79
2023-01-18T05:01:14.167Z,-3.64
2023-01-18T05:03:42.096Z,-3.74
2023-01-18T05:06:11.884Z,-3.89
2023-01-18T05:08:41.003Z,-3.98
2023-01-18T05:11:11.805Z,-3.86
2023-01-18T05:13:39.987Z,-3.62
2023-01-18T05:16:08.195Z,-3.49
2023-01-18T05:18:35.773Z,-3.48
2023-01-18T05:21:03.495Z,-3.37
2023-01-18T05:23:31.099Z,-3.31
2023-01-18T05:25:59.479Z,-3.22
2023-01-18T05:28:29.035Z,-3.26
2023-01-18T05:30:56.633Z,-3.21
2023-01-18T05:33:24.331Z,-3.21
2023-01-18T05:35:52.580Z,-3.14
2023-01-18T05:38:20.980Z,-3.09
2023-01-18T05:40:52.294Z,-3.13
2023-01-18T05:43:20.311Z,-3.22
2023-01-18T05:45:49.706Z,-3.36
2023-01-18T05:48:17.911Z,-3.44
2023-01-18T05:50:47.221Z,-3.56
2023-01-18T05:53:16.391Z,-3.58
2023-01-18T05:55:44.799Z,-3.63
2023-01-18T05:58:12.599Z,-3.60
2023-01-18T06:00:40.137Z,-3.72
2023-01-18T06:03:10.815Z,-3.71
2023-01-18T06:05:38.703Z,-3.86
2023-01-18T06:08:06.809Z,-3.45
2023-01-18T06:10:34.628Z,-3.31
2023-01-18T06:13:02.330Z,-3.23
2023-01-18T06:15:29.939Z,-3.23
2023-01-18T06:17:59.341Z,-3.51
2023-01-18T06:20:30.622Z,-3.55
2023-01-18T06:22:59.266Z,-3.61
2023-01-18T06:25:27.459Z,-3.61
2023-01-18T06:27:55.018Z,-3.46
2023-01-18T06:30:22.960Z,-3.39
2023-01-18T06:32:51.448Z,-3.30
2023-01-18T06:35:20.326Z,-3.29
2023-01-18T06:37:49.189Z,-3.22
2023-01-18T06:40:17.613Z,-3.16
2023-01-18T06:42:48.971Z,-3.02
2023-01-18T06:45:19.504Z,-3.03
2023-01-18T06:47:47.056Z,-3.05
2023-01-18T06:50:15.345Z,-3.06
2023-01-18T06:52:43.740Z,-3.18
2023-01-18T06:55:13.490Z,-3.11
2023-01-18T06:57:41.096Z,-3.14
2023-01-18T07:00:10.728Z,-3.20
2023-01-18T07:02:38.539Z,-3.13
2023-01-18T07:05:06.921Z,-3.21
2023-01-18T07:07:35.260Z,-3.25
2023-01-18T07:10:02.760Z,-3.28
2023-01-18T07:12:31.666Z,-3.25
2023-01-18T07:15:01.608Z,-3.18
2023-01-18T07:17:32.687Z,-3.09
2023-01-18T07:20:00.184Z,-3.06
2023-01-18T07:22:36.169Z,-3.00
2023-01-18T07:25:04.054Z,-2.98
2023-01-18T07:27:33.212Z,-3.01
2023-01-18T07:30:00.774Z,-2.95
2023-01-18T07:32:28.482Z,-2.96
2023-01-18T07:34:58.569Z,-2.94
2023-01-18T07:37:26.972Z,-2.98
2023-01-18T07:39:54.529Z,-2.97
2023-01-18T07:42:22.101Z,-2.93
2023-01-18T07:44:51.148Z,-2.93
2023-01-18T07:47:18.984Z,-2.84
2023-01-18T07:49:46.868Z,-2.82
2023-01-18T07:52:14.529Z,-2.78
2023-01-18T07:54:42.258Z,-2.80
2023-01-18T07:57:09.835Z,-2.77
2023-01-18T07:59:40.041Z,-2.75
2023-01-18T08:02:12.843Z,-2.73
2023-01-18T08:04:41.910Z,-2.73
2023-01-18T08:07:09.526Z,-2.75
2023-01-18T08:09:37.072Z,-2.59
2023-01-18T08:12:06.823Z,-2.75
2023-01-18T08:14:34.904Z,-2.76
2023-01-18T08:17:02.606Z,-2.74
2023-01-18T08:19:31.774Z,-2.73
2023-01-18T08:21:59.672Z,-2.63
2023-01-18T08:24:29.509Z,-2.69
2023-01-18T08:26:57.377Z,-2.67
2023-01-18T08:29:25.283Z,-2.60
2023-01-18T08:31:53.577Z,-2.52
2023-01-18T08:34:21.927Z,-2.56
2023-01-18T08:36:51.055Z,-2.59
2023-01-18T08:39:18.876Z,-2.62
2023-01-18T08:41:47.478Z,-2.58
2023-01-18T08:44:15.026Z,-2.55
2023-01-18T08:46:42.652Z,-2.50
2023-01-18T08:49:11.853Z,-2.45
2023-01-18T08:51:39.455Z,-2.41
2023-01-18T08:54:08.515Z,-2.36
2023-01-18T08:56:36.280Z,-2.32
2023-01-18T08:59:04.221Z,-2.28
2023-01-18T09:01:32.044Z,-2.26
2023-01-18T09:03:59.638Z,-2.38
2023-01-18T09:06:32.076Z,-2.27
2023-01-18T09:08:59.892Z,-2.22
2023-01-18T09:11:29.160Z,-2.20
2023-01-18T09:14:01.767Z,-2.15
2023-01-18T09:16:30.979Z,-2.15
2023-01-18T09:18:58.761Z,-2.14
2023-01-18T09:21:28.022Z,-2.09
2023-01-18T09:23:55.792Z,-2.00
2023-01-18T09:26:23.427Z,-2.01
2023-01-18T09:28:53.458Z,-1.90
2023-01-18T09:31:22.994Z,-1.90
2023-01-18T09:33:54.022Z,-1.90
2023-01-18T09:36:26.340Z,-1.86
2023-01-18T09:38:54.297Z,-1.85
2023-01-18T09:41:29.110Z,-1.82
2023-01-18T09:44:01.879Z,-1.80
2023-01-18T09:46:29.527Z,-1.76
2023-01-18T09:48:59.306Z,-1.77
2023-01-18T09:51:31.025Z,-1.72
2023-01-18T09:54:10.114Z,-1.66
2023-01-18T09:56:43.463Z,-1.63
2023-01-18T09:59:20.037Z,-1.59
2023-01-18T10:01:48.464Z,-1.53
2023-01-18T10:04:18.584Z,-1.48
2023-01-18T10:06:49.500Z,-1.43
2023-01-18T10:09:19.600Z,-1.36
2023-01-18T10:11:54.254Z,-1.25
2023-01-18T10:14:35.782Z,-1.27
2023-01-18T10:17:05.291Z,-1.15
2023-01-18T10:19:33.700Z,-1.14
2023-01-18T10:22:06.616Z,-1.13
2023-01-18T10:24:42.344Z,-1.11
2023-01-18T10:27:28.465Z,-1.10
2023-01-18T10:30:11.249Z,-1.05
2023-01-18T10:32:39.723Z,-0.98
2023-01-18T10:35:14.964Z,-0.92
2023-01-18T10:37:45.396Z,-0.86
2023-01-18T10:40:15.614Z,-0.73
2023-01-18T10:42:46.446Z,-0.73
2023-01-18T10:45:20.299Z,-0.77
2023-01-18T10:47:48.983Z,-0.73
2023-01-18T10:50:18.557Z,-0.76
2023-01-18T10:52:46.386Z,-0.71
2023-01-18T10:55:17.533Z,-0.65
2023-01-18T10:57:55.158Z,-0.63
2023-01-18T11:00:40.432Z,-0.55
2023-01-18T11:03:17.843Z,-0.51
2023-01-18T11:05:46.794Z,-0.42
2023-01-18T11:08:22.063Z,-0.41
2023-01-18T11:11:12.448Z,-0.34
2023-01-18T11:13:45.357Z,-0.27
2023-01-18T11:16:17.862Z,-0.24
2023-01-18T11:19:10.705Z,-0.15
2023-01-18T11:21:50.645Z,-0.18
2023-01-18T11:24:41.551Z,-0.11
2023-01-18T11:27:24.992Z,0.08
2023-01-18T11:30:29.159Z,0.21
2023-01-18T11:33:49.286Z,0.26
2023-01-18T11:40:10.043Z,0.53
2023-01-18T11:42:39.152Z,0.54
2023-01-18T11:45:16.307Z,0.56
2023-01-18T11:47:55.304Z,0.51
2023-01-18T11:50:58.251Z,0.75
2023-01-18T11:53:51.006Z,0.79
2023-01-18T11:56:29.141Z,0.90
2023-01-18T11:59:15.326Z,0.95
2023-01-18T12:02:19.813Z,0.94
2023-01-18T12:05:01.357Z,0.93
2023-01-18T12:07:59.474Z,1.02
2023-01-18T12:10:38.275Z,1.08
2023-01-18T12:13:41.743Z,1.17
2023-01-18T12:16:17.221Z,1.16
2023-01-18T12:19:19.692Z,1.19
2023-01-18T12:22:02.767Z,1.23
2023-01-18T12:24:38.511Z,1.50
2023-01-18T12:27:14.213Z,1.46
2023-01-18T12:30:23.630Z,1.49
2023-01-18T12:33:11.241Z,1.61
2023-01-18T12:35:56.760Z,1.54
2023-01-18T12:38:27.919Z,1.74
2023-01-18T12:41:16.322Z,1.75
2023-01-18T12:43:57.490Z,1.75
2023-01-18T12:46:29.450Z,1.88
2023-01-18T12:49:01.286Z,1.93
2023-01-18T12:51:32.689Z,1.96
2023-01-18T12:54:03.621Z,2.07
2023-01-18T12:56:33.403Z,2.05
2023-01-18T12:59:04.768Z,2.15
2023-01-18T13:01:40.043Z,2.18
2023-01-18T13:04:14.257Z,2.21
2023-01-18T13:06:49.195Z,2.15
2023-01-18T13:09:20.119Z,2.24
2023-01-18T13:11:48.300Z,2.24
2023-01-18T13:14:21.327Z,2.28
2023-01-18T13:16:52.313Z,2.31
2023-01-18T13:19:24.711Z,2.29
2023-01-18T13:22:03.005Z,2.40
2023-01-18T13:24:40.778Z,2.43
2023-01-18T13:27:10.114Z,2.54
2023-01-18T13:29:39.576Z,2.49
2023-01-18T13:32:22.907Z,2.53
2023-01-18T13:35:17.972Z,2.62
2023-01-18T13:37:48.726Z,2.67
2023-01-18T13:40:24.502Z,2.61
2023-01-18T13:42:52.243Z,2.65
2023-01-18T13:45:23.778Z,2.69
2023-01-18T13:48:03.816Z,2.77
2023-01-18T13:50:45.073Z,2.75
2023-01-18T13:53:31.568Z,2.83
2023-01-18T13:56:33.350Z,2.95
2023-01-18T13:59:06.759Z,3.02
2023-01-18T14:01:37.292Z,3.01
2023-01-18T14:04:17.766Z,2.94
2023-01-18T14:06:46.476Z,3.05
2023-01-18T14:09:16.003Z,4.08
2023-01-18T14:11:52.185Z,4.40
2023-01-18T14:14:30.001Z,4.97
2023-01-18T14:17:02.213Z,4.75
2023-01-18T14:19:30.673Z,5.04
2023-01-18T14:22:27.059Z,4.54
2023-01-18T14:25:17.412Z,4.51
2023-01-18T14:27:49.076Z,4.89
2023-01-18T14:30:22.719Z,4.64
2023-01-18T14:32:56.962Z,4.43
2023-01-18T14:35:26.114Z,4.48
2023-01-18T14:37:54.374Z,4.21
2023-01-18T14:40:24.448Z,4.03
2023-01-18T14:42:54.359Z,3.87
2023-01-18T14:45:29.149Z,3.61
2023-01-18T14:48:00.608Z,3.81
2023-01-18T14:50:33.300Z,3.79
2023-01-18T14:53:01.643Z,3.47
2023-01-18T14:55:32.348Z,3.46
2023-01-18T14:58:05.763Z,3.71
2023-01-18T15:00:33.520Z,3.03
2023-01-18T15:03:03.062Z,2.76
2023-01-18T15:05:31.504Z,2.68
2023-01-18T15:07:59.498Z,2.69
2023-01-18T15:10:28.106Z,2.62
2023-01-18T15:12:58.537Z,2.55
2023-01-18T15:15:30.285Z,2.49
2023-01-18T15:18:04.418Z,2.40
2023-01-18T15:20:32.361Z,2.22
2023-01-18T15:23:00.580Z,2.11
2023-01-18T15:25:33.122Z,2.03
2023-01-18T15:28:18.412Z,1.99
2023-01-18T15:30:52.063Z,1.94
2023-01-18T15:33:23.564Z,1.85
2023-01-18T15:35:54.733Z,1.91
2023-01-18T15:38:22.353Z,1.79
2023-01-18T15:40:56.815Z,1.69
2023-01-18T15:43:29.203Z,1.59
2023-01-18T15:45:57.713Z,1.70
2023-01-18T15:48:28.143Z,1.59
2023-01-18T15:50:57.130Z,1.43
2023-01-18T15:53:30.033Z,1.41
2023-01-18T15:55:59.679Z,1.47
2023-01-18T15:58:32.288Z,1.38
2023-01-18T16:01:02.005Z,1.34
2023-01-18T16:03:35.471Z,1.29
2023-01-18T16:06:10.418Z,1.37
2023-01-18T16:08:39.875Z,1.27
2023-01-18T16:11:27.207Z,1.27
2023-01-18T16:14:01.454Z,1.24
2023-01-18T16:16:30.148Z,1.15
2023-01-18T16:19:06.781Z,1.16
2023-01-18T16:21:40.578Z,1.13
2023-01-18T16:24:23.569Z,1.07
2023-01-18T16:26:51.286Z,1.13
2023-01-18T16:29:19.207Z,1.10
2023-01-18T16:31:48.206Z,1.05
2023-01-18T16:34:21.460Z,1.12
2023-01-18T16:36:55.577Z,1.08
2023-01-18T16:39:24.448Z,1.15
2023-01-18T16:41:56.403Z,1.11
2023-01-18T16:44:24.638Z,0.99
2023-01-18T16:46:53.993Z,0.94
2023-01-18T16:49:23.069Z,0.92
2023-01-18T16:51:51.398Z,0.94
2023-01-18T16:54:19.069Z,0.85
2023-01-18T16:56:47.897Z,0.80
2023-01-18T16:59:18.509Z,0.81
2023-01-18T17:01:46.642Z,0.76
2023-01-18T17:04:14.496Z,0.82
2023-01-18T17:06:44.669Z,0.80
2023-01-18T17:09:22.006Z,0.71
2023-01-18T17:11:50.159Z,0.74
2023-01-18T17:14:18.318Z,0.81
2023-01-18T17:16:46.624Z,0.69
2023-01-18T17:19:14.665Z,0.69
2023-01-18T17:21:45.342Z,0.66
2023-01-18T17:24:14.529Z,0.66
2023-01-18T17:26:43.016Z,0.63
2023-01-18T17:29:17.382Z,0.66
2023-01-18T17:31:52.394Z,0.69
2023-01-18T17:34:27.769Z,0.60
2023-01-18T17:36:59.148Z,0.57
2023-01-18T17:39:37.433Z,0.53
2023-01-18T17:42:14.349Z,0.57
2023-01-18T17:44:44.256Z,0.58
2023-01-18T17:47:11.993Z,0.58
2023-01-18T17:49:39.687Z,0.59
2023-01-18T17:52:08.846Z,0.67
2023-01-18T17:54:36.466Z,0.71
2023-01-18T17:57:08.647Z,0.66
2023-01-18T17:59:36.151Z,0.68
2023-01-18T18:02:04.737Z,0.60
2023-01-18T18:04:32.489Z,0.67
2023-01-18T18:07:00.468Z,0.52
2023-01-18T18:09:29.558Z,0.57
2023-01-18T18:11:57.286Z,0.64
2023-01-18T18:14:24.855Z,0.68
2023-01-18T18:16:52.632Z,0.59
2023-01-18T18:19:21.340Z,0.60
2023-01-18T18:21:49.074Z,0.50
2023-01-18T18:24:16.788Z,0.58
2023-01-18T18:26:45.724Z,0.71
2023-01-18T18:29:13.617Z,0.81
2023-01-18T18:31:42.223Z,0.67
2023-01-18T18:34:10.231Z,0.67
2023-01-18T18:36:38.231Z,0.68
2023-01-18T18:39:06.649Z,0.75
2023-01-18T18:41:34.264Z,0.58
2023-01-18T18:44:03.285Z,0.68
2023-01-18T18:46:30.914Z,0.75
2023-01-18T18:48:58.621Z,0.72
2023-01-18T18:51:26.795Z,0.66
2023-01-18T18:53:54.361Z,0.66
2023-01-18T18:56:21.928Z,0.63
2023-01-18T18:58:49.466Z,0.64
2023-01-18T19:01:22.701Z,0.64
2023-01-18T19:03:51.128Z,0.64
2023-01-18T19:06:20.324Z,0.52
2023-01-18T19:08:48.359Z,0.70
2023-01-18T19:11:16.617Z,0.66
2023-01-18T19:13:44.437Z,0.64
2023-01-18T19:16:12.362Z,0.62
2023-01-18T19:18:41.579Z,0.72
2023-01-18T19:21:09.277Z,0.65
2023-01-18T19:23:36.796Z,0.68
2023-01-18T19:26:04.396Z,0.77
2023-01-18T19:28:32.026Z,0.67
2023-01-18T19:31:04.393Z,0.61
2023-01-18T19:33:32.050Z,0.75
2023-01-18T19:36:07.929Z,0.69
2023-01-18T19:38:40.807Z,0.64
2023-01-18T19:41:13.120Z,0.61
2023-01-18T19:43:41.817Z,0.58
2023-01-18T19:46:12.688Z,0.66
2023-01-18T19:48:40.313Z,0.72
2023-01-18T19:51:21.120Z,0.78
2023-01-18T19:53:49.586Z,0.69
2023-01-18T19:56:17.165Z,0.68
2023-01-18T19:58:45.096Z,0.72
2023-01-18T20:01:26.665Z,0.78
2023-01-18T20:03:58.076Z,0.77
2023-01-18T20:06:26.958Z,0.81
2023-01-18T20:08:54.538Z,0.81
2023-01-18T20:11:22.059Z,0.83
2023-01-18T20:13:50.844Z,0.91
2023-01-18T20:16:20.471Z,0.97
2023-01-18T20:18:48.631Z,1.02
2023-01-18T20:21:18.323Z,1.06
2023-01-18T20:23:47.614Z,1.05
2023-01-18T20:26:24.563Z,0.96
2023-01-18T20:28:53.465Z,0.97
2023-01-18T20:31:21.214Z,0.85
2023-01-18T20:33:48.804Z,1.10
2023-01-18T20:36:16.653Z,1.14
2023-01-18T20:38:45.035Z,1.25
2023-01-18T20:41:13.965Z,1.29
2023-01-18T20:43:41.615Z,1.30
2023-01-18T20:46:11.294Z,1.31
2023-01-18T20:48:42.864Z,1.28
2023-01-18T20:51:10.548Z,1.35
2023-01-18T20:53:39.128Z,1.33
2023-01-18T20:56:19.977Z,1.29
2023-01-18T20:58:56.055Z,1.37
2023-01-18T21:01:31.626Z,1.23
2023-01-18T21:04:00.100Z,1.23
2023-01-18T21:06:28.146Z,1.22
2023-01-18T21:08:56.922Z,1.28
2023-01-18T21:11:25.465Z,1.32
2023-01-18T21:13:53.884Z,1.32
2023-01-18T21:16:23.694Z,1.31
2023-01-18T21:18:55.892Z,1.30
2023-01-18T21:21:23.892Z,1.32
2023-01-18T21:23:51.652Z,1.31
2023-01-18T21:26:19.606Z,1.41
2023-01-18T21:28:47.402Z,1.42
2023-01-18T21:31:15.706Z,1.42
2023-01-18T21:33:45.339Z,1.45
2023-01-18T21:36:15.389Z,1.53
2023-01-18T21:38:43.292Z,1.50
2023-01-18T21:41:28.416Z,1.44
2023-01-18T21:44:13.595Z,1.52
2023-01-18T21:46:45.648Z,1.51
2023-01-18T21:49:42.912Z,1.51
2023-01-18T21:52:37.509Z,1.55
2023-01-18T21:55:05.990Z,1.54
2023-01-18T21:57:33.894Z,1.52
2023-01-18T22:00:01.874Z,1.52
2023-01-18T22:02:34.566Z,1.63
2023-01-18T22:05:08.495Z,1.67
2023-01-18T22:07:36.423Z,1.53
2023-01-18T22:10:06.611Z,1.50
2023-01-18T22:12:36.525Z,1.49
2023-01-18T22:15:04.704Z,1.51
2023-01-18T22:17:32.627Z,1.44
2023-01-18T22:20:02.218Z,1.35
2023-01-18T22:22:32.062Z,1.28
2023-01-18T22:25:02.273Z,1.25
2023-01-18T22:27:30.391Z,1.11
2023-01-18T22:29:58.168Z,1.11
2023-01-18T22:32:25.914Z,1.09
2023-01-18T22:34:54.008Z,1.15
2023-01-18T22:37:22.859Z,1.18
2023-01-18T22:40:03.664Z,1.07
2023-01-18T22:42:35.113Z,1.14
2023-01-18T22:45:05.974Z,1.11
2023-01-18T22:47:33.689Z,1.04
2023-01-18T22:50:01.908Z,1.06
2023-01-18T22:52:29.854Z,1.05
2023-01-18T22:54:59.202Z,1.04
2023-01-18T22:57:26.865Z,0.89
2023-01-18T22:59:54.611Z,0.92
2023-01-18T23:02:22.325Z,0.86
2023-01-18T23:04:52.819Z,0.92
2023-01-18T23:07:21.155Z,1.00
2023-01-18T23:09:51.243Z,0.90
2023-01-18T23:12:20.621Z,1.02
2023-01-18T23:15:06.048Z,0.92
2023-01-18T23:17:40.101Z,0.80
2023-01-18T23:20:14.718Z,0.90
2023-01-18T23:22:42.730Z,0.87
2023-01-18T23:25:12.578Z,0.81
2023-01-18T23:27:41.796Z,0.89
2023-01-18T23:30:13.977Z,0.91
2023-01-18T23:32:43.553Z,0.90
2023-01-18T23:35:13.480Z,0.82
2023-01-18T23:37:44.131Z,1.04
2023-01-18T23:40:30.474Z,0.88
2023-01-18T23:43:16.868Z,0.85
2023-01-18T23:46:03.286Z,0.78
2023-01-18T23:48:48.458Z,0.77
2023-01-18T23:51:33.750Z,0.77
2023-01-18T23:54:19.499Z,0.84
2023-01-18T23:56:48.201Z,0.73
2023-01-18T23:59:17.597Z,0.81
